createdAt,value
2018-06-11T00:01:25.938Z,19.53
2018-06-11T00:04:00.529Z,20.93
2018-06-11T00:06:34.535Z,21.13
2018-06-11T00:09:09.972Z,24.80
2018-06-11T00:11:45.022Z,24.83
2018-06-11T00:14:20.048Z,25.40
2018-06-11T00:16:54.990Z,27.40
2018-06-11T00:19:30.417Z,22.90
2018-06-11T00:22:05.153Z,19.77
2018-06-11T00:24:39.358Z,18.60
2018-06-11T00:27:13.531Z,19.50
2018-06-11T00:29:47.633Z,23.40
2018-06-11T00:32:22.887Z,24.17
2018-06-11T00:34:57.080Z,21.30
2018-06-11T00:37:32.105Z,19.33
2018-06-11T00:40:06.568Z,18.67
2018-06-11T00:42:41.946Z,17.07
2018-06-11T00:45:17.187Z,19.90
2018-06-11T00:47:51.359Z,18.90
2018-06-11T00:50:25.848Z,28.90
2018-06-11T00:53:00.341Z,37.67
2018-06-11T00:55:45.298Z,32.37
2018-06-11T00:58:19.915Z,30.63
2018-06-11T01:00:54.982Z,28.90
2018-06-11T01:03:29.084Z,29.93
2018-06-11T01:06:03.911Z,31.90
2018-06-11T01:08:38.661Z,29.70
2018-06-11T01:11:13.989Z,31.50
2018-06-11T01:13:48.372Z,33.90
2018-06-11T01:16:24.256Z,34.13
2018-06-11T01:18:58.385Z,31.67
2018-06-11T01:21:32.909Z,31.33
2018-06-11T01:24:07.077Z,29.17
2018-06-11T01:26:41.440Z,26.57
2018-06-11T01:29:15.990Z,25.33
2018-06-11T01:31:50.285Z,20.67
2018-06-11T01:34:24.652Z,19.83
2018-06-11T01:36:59.652Z,18.73
2018-06-11T01:39:34.882Z,21.87
2018-06-11T01:42:09.801Z,23.67
2018-06-11T01:44:44.103Z,22.40
2018-06-11T01:47:18.544Z,22.40
2018-06-11T01:49:53.296Z,23.10
2018-06-11T01:52:27.929Z,25.03
2018-06-11T01:55:02.114Z,25.17
2018-06-11T01:57:36.436Z,32.40
2018-06-11T02:00:10.984Z,39.97
2018-06-11T02:02:45.226Z,38.90
2018-06-11T02:05:19.796Z,29.17
2018-06-11T02:07:54.050Z,22.03
2018-06-11T02:10:28.515Z,19.27
2018-06-11T02:13:03.290Z,17.40
2018-06-11T02:15:37.462Z,20.23
2018-06-11T02:18:12.413Z,18.77
2018-06-11T02:20:47.633Z,18.00
2018-06-11T02:23:21.964Z,20.70
2018-06-11T02:25:56.693Z,19.63
2018-06-11T02:28:30.928Z,21.53
2018-06-11T02:31:05.403Z,20.03
2018-06-11T02:33:40.419Z,19.87
2018-06-11T02:36:14.596Z,18.50
2018-06-11T02:38:49.617Z,17.77
2018-06-11T02:41:23.862Z,15.47
2018-06-11T02:43:58.093Z,14.60
2018-06-11T02:46:32.549Z,16.50
2018-06-11T02:49:06.892Z,15.57
2018-06-11T02:51:42.188Z,15.50
2018-06-11T02:54:23.101Z,16.17
2018-06-11T02:56:57.422Z,16.10
2018-06-11T02:59:31.737Z,19.40
2018-06-11T03:02:11.420Z,21.40
2018-06-11T03:04:46.848Z,19.73
2018-06-11T03:07:21.460Z,20.63
2018-06-11T03:09:56.308Z,17.97
2018-06-11T03:12:30.425Z,16.80
2018-06-11T03:15:04.583Z,19.07
2018-06-11T03:17:38.716Z,15.40
2018-06-11T03:20:14.104Z,14.83
2018-06-11T03:22:48.284Z,14.73
2018-06-11T03:25:22.568Z,15.20
2018-06-11T03:27:56.724Z,15.13
2018-06-11T03:30:31.592Z,14.83
2018-06-11T03:33:05.715Z,15.03
2018-06-11T03:35:40.293Z,14.70
2018-06-11T03:38:14.609Z,15.23
2018-06-11T03:40:48.700Z,15.97
2018-06-11T03:43:22.776Z,14.50
2018-06-11T03:45:57.591Z,13.17
2018-06-11T03:48:31.669Z,14.00
2018-06-11T03:51:06.057Z,17.60
2018-06-11T03:53:40.379Z,15.73
2018-06-11T03:56:14.809Z,15.00
2018-06-11T03:58:48.827Z,12.03
2018-06-11T04:01:23.445Z,13.70
2018-06-11T04:03:57.450Z,12.23
2018-06-11T04:06:33.315Z,13.00
2018-06-11T04:09:08.287Z,11.63
2018-06-11T04:11:42.565Z,12.57
2018-06-11T04:14:17.341Z,13.10
2018-06-11T04:16:52.007Z,59.17
2018-06-11T04:19:26.617Z,13.30
2018-06-11T04:22:01.112Z,13.07
2018-06-11T04:24:36.521Z,13.13
2018-06-11T04:27:11.817Z,11.77
2018-06-11T04:29:45.923Z,12.77
2018-06-11T04:32:21.612Z,12.63
2018-06-11T04:34:56.790Z,11.67
2018-06-11T04:37:31.070Z,11.57
2018-06-11T04:40:05.636Z,25.80
2018-06-11T04:42:40.824Z,20.87
2018-06-11T04:45:15.245Z,22.70
2018-06-11T04:47:50.097Z,21.30
2018-06-11T04:50:24.362Z,21.50
2018-06-11T04:52:58.942Z,19.10
2018-06-11T04:55:35.945Z,15.67
2018-06-11T04:58:12.504Z,13.90
2018-06-11T05:00:47.108Z,11.30
2018-06-11T05:03:21.308Z,10.83
2018-06-11T05:05:55.651Z,11.27
2018-06-11T05:08:30.366Z,12.10
2018-06-11T05:11:04.480Z,13.13
2018-06-11T05:13:40.717Z,12.63
2018-06-11T05:16:15.788Z,14.20
2018-06-11T05:18:51.656Z,14.77
2018-06-11T05:21:26.131Z,34.90
2018-06-11T05:24:00.839Z,17.07
2018-06-11T05:26:36.910Z,16.70
2018-06-11T05:29:12.535Z,26.67
2018-06-11T05:31:47.265Z,23.97
2018-06-11T05:34:21.477Z,29.90
2018-06-11T05:36:56.907Z,30.67
2018-06-11T05:39:32.930Z,35.50
2018-06-11T05:42:07.117Z,22.67
2018-06-11T05:44:41.727Z,27.47
2018-06-11T05:47:15.938Z,26.37
2018-06-11T05:49:50.149Z,25.07
2018-06-11T05:52:25.362Z,19.50
2018-06-11T05:54:59.984Z,18.80
2018-06-11T05:57:34.226Z,18.30
2018-06-11T06:00:09.360Z,17.63
2018-06-11T06:02:43.443Z,15.53
2018-06-11T06:05:19.237Z,16.77
2018-06-11T06:07:53.822Z,17.10
2018-06-11T06:10:28.597Z,14.10
2018-06-11T06:13:03.224Z,14.53
2018-06-11T06:15:37.376Z,13.73
2018-06-11T06:18:11.428Z,13.53
2018-06-11T06:20:45.683Z,13.10
2018-06-11T06:23:19.750Z,12.17
2018-06-11T06:25:55.064Z,11.67
2018-06-11T06:28:29.182Z,12.23
2018-06-11T06:31:03.950Z,9.97
2018-06-11T06:33:38.482Z,9.37
2018-06-11T06:36:14.161Z,9.97
2018-06-11T06:38:48.529Z,9.70
2018-06-11T06:41:22.822Z,9.97
2018-06-11T06:43:57.222Z,10.73
2018-06-11T06:46:32.349Z,9.63
2018-06-11T06:49:06.503Z,8.73
2018-06-11T06:51:42.742Z,8.93
2018-06-11T06:54:18.103Z,9.13
2018-06-11T06:56:52.231Z,9.87
2018-06-11T06:59:26.808Z,10.60
2018-06-11T07:02:01.095Z,9.33
2018-06-11T07:04:35.513Z,9.90
2018-06-11T07:07:09.896Z,8.13
2018-06-11T07:09:43.991Z,8.57
2018-06-11T07:12:18.552Z,8.50
2018-06-11T07:14:53.809Z,8.63
2018-06-11T07:17:28.108Z,8.90
2018-06-11T07:20:02.441Z,7.87
2018-06-11T07:22:37.167Z,8.03
2018-06-11T07:25:11.531Z,7.37
2018-06-11T07:27:46.298Z,7.80
2018-06-11T07:30:20.422Z,6.97
2018-06-11T07:32:55.702Z,6.73
2018-06-11T07:35:31.160Z,7.00
2018-06-11T07:38:05.481Z,6.90
2018-06-11T07:40:39.857Z,6.80
2018-06-11T07:43:14.051Z,7.07
2018-06-11T07:45:48.528Z,6.63
2018-06-11T07:48:22.904Z,6.13
2018-06-11T07:50:56.965Z,6.53
2018-06-11T07:53:32.043Z,5.43
2018-06-11T07:56:07.007Z,6.90
2018-06-11T07:58:41.315Z,5.30
2018-06-11T08:01:16.429Z,6.13
2018-06-11T08:03:51.879Z,6.17
2018-06-11T08:06:26.554Z,5.67
2018-06-11T08:09:00.746Z,6.83
2018-06-11T08:11:34.938Z,6.73
2018-06-11T08:14:09.033Z,5.67
2018-06-11T08:16:43.182Z,5.43
2018-06-11T08:19:17.297Z,5.10
2018-06-11T08:21:51.546Z,5.27
2018-06-11T08:24:25.867Z,6.30
2018-06-11T08:27:00.222Z,6.57
2018-06-11T08:29:35.484Z,5.20
2018-06-11T08:32:10.618Z,5.47
2018-06-11T08:34:44.904Z,5.47
2018-06-11T08:37:19.020Z,4.90
2018-06-11T08:39:55.095Z,4.60
2018-06-11T08:42:30.113Z,5.03
2018-06-11T08:45:04.373Z,5.47
2018-06-11T08:47:38.910Z,4.70
2018-06-11T08:50:13.666Z,4.90
2018-06-11T08:52:48.091Z,4.47
2018-06-11T08:55:22.415Z,4.73
2018-06-11T08:57:56.554Z,4.63
2018-06-11T09:00:30.791Z,4.20
2018-06-11T09:03:04.869Z,4.13
2018-06-11T09:05:39.132Z,4.83
2018-06-11T09:08:13.489Z,5.30
2018-06-11T09:10:47.832Z,5.50
2018-06-11T09:13:22.148Z,6.20
2018-06-11T09:15:56.370Z,4.80
2018-06-11T09:18:31.182Z,4.27
2018-06-11T09:21:06.346Z,3.80
2018-06-11T09:23:40.433Z,4.40
2018-06-11T09:26:14.638Z,4.27
2018-06-11T09:28:48.686Z,5.00
2018-06-11T09:31:23.014Z,4.80
2018-06-11T09:34:01.078Z,4.97
2018-06-11T09:36:36.201Z,5.20
2018-06-11T09:39:10.461Z,5.50
2018-06-11T09:41:44.572Z,4.87
2018-06-11T09:44:18.789Z,4.20
2018-06-11T09:46:54.187Z,4.77
2018-06-11T09:49:28.325Z,6.03
2018-06-11T09:52:02.541Z,4.57
2018-06-11T09:54:36.993Z,4.17
2018-06-11T09:57:11.213Z,4.33
2018-06-11T09:59:45.416Z,3.53
2018-06-11T10:02:19.800Z,3.90
2018-06-11T10:04:54.082Z,4.27
2018-06-11T10:07:28.434Z,3.50
2018-06-11T10:10:03.563Z,3.97
2018-06-11T10:12:38.246Z,3.50
2018-06-11T10:15:12.519Z,3.47
2018-06-11T10:17:46.857Z,3.40
2018-06-11T10:20:20.948Z,3.53
2018-06-11T10:22:55.184Z,3.30
2018-06-11T10:25:29.445Z,5.93
2018-06-11T10:28:03.642Z,6.93
2018-06-11T10:30:38.001Z,3.80
2018-06-11T10:33:12.426Z,3.50
2018-06-11T10:35:48.389Z,2.87
2018-06-11T10:38:22.619Z,3.20
2018-06-11T10:40:56.862Z,3.50
2018-06-11T10:43:31.083Z,3.47
2018-06-11T10:46:05.246Z,3.70
2018-06-11T10:48:40.431Z,3.67
2018-06-11T10:51:14.462Z,3.20
2018-06-11T10:53:49.059Z,2.80
2018-06-11T10:56:23.432Z,3.70
2018-06-11T10:59:05.865Z,3.37
2018-06-11T11:01:40.476Z,3.30
2018-06-11T11:04:15.041Z,4.00
2018-06-11T11:06:49.312Z,3.90
2018-06-11T11:09:28.359Z,3.23
2018-06-11T11:12:04.023Z,3.70
2018-06-11T11:14:38.521Z,3.93
2018-06-11T11:17:12.849Z,2.63
2018-06-11T11:19:48.185Z,3.60
2018-06-11T11:22:22.364Z,4.37
2018-06-11T11:24:56.543Z,3.77
2018-06-11T11:27:30.752Z,3.67
2018-06-11T11:30:05.449Z,3.43
2018-06-11T11:32:41.414Z,4.53
2018-06-11T11:35:15.619Z,4.03
2018-06-11T11:37:49.794Z,3.70
2018-06-11T11:40:23.998Z,4.40
2018-06-11T11:43:22.225Z,3.70
2018-06-11T11:46:03.315Z,3.77
2018-06-11T11:48:47.699Z,3.77
2018-06-11T11:51:22.066Z,4.30
2018-06-11T11:53:56.678Z,3.63
2018-06-11T11:56:31.085Z,15.13
2018-06-11T11:59:05.196Z,6.20
2018-06-11T12:01:39.490Z,5.47
2018-06-11T12:04:13.660Z,6.23
2018-06-11T12:06:47.938Z,6.13
2018-06-11T12:09:22.148Z,4.60
2018-06-11T12:11:59.518Z,4.30
2018-06-11T12:14:33.746Z,4.40
2018-06-11T12:17:07.843Z,4.30
2018-06-11T12:19:42.078Z,4.17
2018-06-11T12:22:16.424Z,3.87
2018-06-11T12:24:50.650Z,4.37
2018-06-11T12:27:19.639Z,4.07
2018-06-11T12:29:47.750Z,4.10
2018-06-11T12:32:16.776Z,4.07
2018-06-11T12:34:48.741Z,3.97
2018-06-11T12:37:17.496Z,4.30
2018-06-11T12:39:45.622Z,4.33
2018-06-11T12:42:13.809Z,8.10
2018-06-11T12:44:42.912Z,4.50
2018-06-11T12:47:10.947Z,4.13
2018-06-11T12:49:42.438Z,18.60
2018-06-11T12:52:11.107Z,23.43
2018-06-11T12:54:39.433Z,6.30
2018-06-11T12:57:07.566Z,6.43
2018-06-11T12:59:35.690Z,5.43
2018-06-11T13:02:05.114Z,6.63
2018-06-11T13:04:33.371Z,6.97
2018-06-11T13:07:02.376Z,8.03
2018-06-11T13:09:31.519Z,6.30
2018-06-11T13:11:59.807Z,6.23
2018-06-11T13:14:27.930Z,7.87
2018-06-11T13:16:57.077Z,9.43
2018-06-11T13:19:25.255Z,7.40
2018-06-11T13:21:53.384Z,9.30
2018-06-11T13:24:21.549Z,35.57
2018-06-11T13:26:50.393Z,37.13
2018-06-11T13:29:18.516Z,10.83
2018-06-11T13:31:46.912Z,13.07
2018-06-11T13:34:15.099Z,9.90
2018-06-11T13:36:43.317Z,9.43
2018-06-11T13:39:12.377Z,8.03
2018-06-11T13:41:40.507Z,8.83
2018-06-11T13:44:13.842Z,8.30
2018-06-11T13:46:42.659Z,7.37
2018-06-11T13:49:13.645Z,7.57
2018-06-11T13:51:42.068Z,7.20
2018-06-11T13:54:11.029Z,6.87
2018-06-11T13:56:40.603Z,7.83
2018-06-11T13:59:09.212Z,7.87
2018-06-11T14:01:38.522Z,7.10
2018-06-11T14:04:16.104Z,7.83
2018-06-11T14:06:44.321Z,7.70
2018-06-11T14:09:13.325Z,8.27
2018-06-11T14:11:44.558Z,7.93
2018-06-11T14:14:13.092Z,8.83
2018-06-11T14:16:41.208Z,8.43
2018-06-11T14:19:10.003Z,8.73
2018-06-11T14:21:39.356Z,10.20
2018-06-11T14:24:09.307Z,8.40
2018-06-11T14:26:37.488Z,9.57
2018-06-11T14:29:06.652Z,11.07
2018-06-11T14:31:36.980Z,9.60
2018-06-11T14:34:05.547Z,10.73
2018-06-11T14:36:34.225Z,9.30
2018-06-11T14:39:02.552Z,9.63
2018-06-11T14:41:30.718Z,10.47
2018-06-11T14:43:59.995Z,9.93
2018-06-11T14:46:28.101Z,8.53
2018-06-11T14:48:57.041Z,8.03
2018-06-11T14:51:26.125Z,9.70
2018-06-11T14:53:57.167Z,9.27
2018-06-11T14:56:25.493Z,10.00
2018-06-11T14:58:53.598Z,10.07
2018-06-11T15:01:22.126Z,9.83
2018-06-11T15:03:52.086Z,8.70
2018-06-11T15:06:20.328Z,8.73
2018-06-11T15:08:49.074Z,8.80
2018-06-11T15:11:18.907Z,9.97
2018-06-11T15:13:47.113Z,9.30
2018-06-11T15:16:15.819Z,7.63
2018-06-11T15:18:43.968Z,9.23
2018-06-11T15:21:12.504Z,8.70
2018-06-11T15:23:40.847Z,8.90
2018-06-11T15:26:08.929Z,7.70
2018-06-11T15:28:37.299Z,7.53
2018-06-11T15:31:06.382Z,7.37
2018-06-11T15:33:34.471Z,8.97
2018-06-11T15:36:04.727Z,7.37
2018-06-11T15:38:33.111Z,8.23
2018-06-11T15:41:01.231Z,7.05
2018-06-11T15:43:29.389Z,10.43
2018-06-11T15:45:57.467Z,9.03
2018-06-11T15:48:25.558Z,8.67
2018-06-11T15:50:53.972Z,9.70
2018-06-11T15:53:22.348Z,7.70
2018-06-11T15:55:51.329Z,6.53
2018-06-11T15:58:19.542Z,5.67
2018-06-11T16:00:48.911Z,7.93
2018-06-11T16:03:17.937Z,8.53
2018-06-11T16:05:46.245Z,29.67
2018-06-11T16:08:14.342Z,7.60
2018-06-11T16:10:44.244Z,7.33
2018-06-11T16:13:12.542Z,9.60
2018-06-11T16:15:40.943Z,9.17
2018-06-11T16:18:10.260Z,10.87
2018-06-11T16:20:38.586Z,12.93
2018-06-11T16:23:06.725Z,14.73
2018-06-11T16:25:35.039Z,11.23
2018-06-11T16:28:04.790Z,11.40
2018-06-11T16:30:33.579Z,6.53
2018-06-11T16:33:02.004Z,7.33
2018-06-11T16:35:33.186Z,7.90
2018-06-11T16:38:01.478Z,7.93
2018-06-11T16:40:29.624Z,7.57
2018-06-11T16:42:58.858Z,7.83
2018-06-11T16:45:26.948Z,7.53
2018-06-11T16:47:55.428Z,6.90
2018-06-11T16:50:23.642Z,7.10
2018-06-11T16:52:52.638Z,8.00
2018-06-11T16:55:20.770Z,8.17
2018-06-11T16:57:51.341Z,8.00
2018-06-11T17:00:20.127Z,8.20
2018-06-11T17:02:49.275Z,7.43
2018-06-11T17:05:19.551Z,7.87
2018-06-11T17:07:48.791Z,8.63
2018-06-11T17:10:17.844Z,9.03
2018-06-11T17:12:46.818Z,7.67
2018-06-11T17:15:15.731Z,8.27
2018-06-11T17:17:44.896Z,80.50
2018-06-11T17:20:13.414Z,14.63
2018-06-11T17:22:41.662Z,7.70
2018-06-11T17:25:11.204Z,7.87
2018-06-11T17:27:40.096Z,7.67
2018-06-11T17:30:08.270Z,7.13
2018-06-11T17:32:37.637Z,8.50
2018-06-11T17:35:06.132Z,9.97
2018-06-11T17:37:34.241Z,11.63
2018-06-11T17:40:02.525Z,10.97
2018-06-11T17:42:30.736Z,7.70
2018-06-11T17:44:58.884Z,54.47
2018-06-11T17:47:27.719Z,10.27
2018-06-11T17:49:56.721Z,11.93
2018-06-11T17:52:25.696Z,9.13
2018-06-11T17:54:54.997Z,9.40
2018-06-11T17:57:23.433Z,9.60
2018-06-11T17:59:51.556Z,9.40
2018-06-11T18:02:20.696Z,10.20
2018-06-11T18:04:48.885Z,11.40
2018-06-11T18:07:17.814Z,11.40
2018-06-11T18:09:46.160Z,7.67
2018-06-11T18:12:14.972Z,8.60
2018-06-11T18:14:43.749Z,8.20
2018-06-11T18:17:12.737Z,7.87
2018-06-11T18:19:47.615Z,8.33
2018-06-11T18:22:19.546Z,8.20
2018-06-11T18:24:47.685Z,8.07
2018-06-11T18:27:16.218Z,8.47
2018-06-11T18:29:47.612Z,9.70
2018-06-11T18:32:16.140Z,9.53
2018-06-11T18:34:45.906Z,12.77
2018-06-11T18:37:14.254Z,9.40
2018-06-11T18:39:43.515Z,9.30
2018-06-11T18:42:12.107Z,11.60
2018-06-11T18:44:41.657Z,15.03
2018-06-11T18:47:09.828Z,13.10
2018-06-11T18:49:38.492Z,10.90
2018-06-11T18:52:06.686Z,26.10
2018-06-11T18:54:35.979Z,13.90
2018-06-11T18:57:04.932Z,11.07
2018-06-11T18:59:33.466Z,10.50
2018-06-11T19:02:07.011Z,10.57
2018-06-11T19:04:39.619Z,9.67
2018-06-11T19:07:07.811Z,10.43
2018-06-11T19:09:36.007Z,31.50
2018-06-11T19:12:05.709Z,14.10
2018-06-11T19:14:34.913Z,11.90
2018-06-11T19:17:03.213Z,10.53
2018-06-11T19:19:31.574Z,9.67
2018-06-11T19:22:01.008Z,9.47
2018-06-11T19:24:29.723Z,9.83
2018-06-11T19:26:58.134Z,10.00
2018-06-11T19:29:26.248Z,11.17
2018-06-11T19:31:55.024Z,11.33
2018-06-11T19:34:23.233Z,11.17
2018-06-11T19:36:53.863Z,11.17
2018-06-11T19:39:22.325Z,10.87
2018-06-11T19:41:55.458Z,12.17
2018-06-11T19:44:24.627Z,11.37
2018-06-11T19:47:00.215Z,11.37
2018-06-11T19:49:30.064Z,11.30
2018-06-11T19:51:59.318Z,8.87
2018-06-11T19:54:27.681Z,8.50
2018-06-11T19:56:56.186Z,8.93
2018-06-11T19:59:31.884Z,8.47
2018-06-11T20:02:08.482Z,12.50
2018-06-11T20:04:43.229Z,11.43
2018-06-11T20:07:18.271Z,9.43
2018-06-11T20:09:54.229Z,7.40
2018-06-11T20:12:31.801Z,8.57
2018-06-11T20:15:07.261Z,11.03
2018-06-11T20:17:41.896Z,11.00
2018-06-11T20:20:17.448Z,12.00
2018-06-11T20:22:51.800Z,11.30
2018-06-11T20:25:27.359Z,11.20
2018-06-11T20:28:02.401Z,14.77
2018-06-11T20:30:36.680Z,12.03
2018-06-11T20:33:11.589Z,13.40
2018-06-11T20:35:48.607Z,12.20
2018-06-11T20:38:24.471Z,11.50
2018-06-11T20:41:02.665Z,12.67
2018-06-11T20:43:37.348Z,9.17
2018-06-11T20:46:14.783Z,8.47
2018-06-11T20:48:51.510Z,9.13
2018-06-11T20:51:26.588Z,9.23
2018-06-11T20:54:01.726Z,10.67
2018-06-11T20:56:35.830Z,10.30
2018-06-11T20:59:11.008Z,10.30
2018-06-11T21:01:46.567Z,11.50
2018-06-11T21:04:20.806Z,10.97
2018-06-11T21:06:56.337Z,9.80
2018-06-11T21:09:30.631Z,10.63
2018-06-11T21:12:05.925Z,9.70
2018-06-11T21:14:40.841Z,10.13
2018-06-11T21:17:15.166Z,10.83
2018-06-11T21:19:49.606Z,10.30
2018-06-11T21:22:23.856Z,9.83
2018-06-11T21:24:59.387Z,9.83
2018-06-11T21:27:33.881Z,10.00
2018-06-11T21:30:08.756Z,10.10
2018-06-11T21:32:43.111Z,11.03
2018-06-11T21:35:17.804Z,10.87
2018-06-11T21:37:53.757Z,11.17
2018-06-11T21:40:30.103Z,9.80
2018-06-11T21:43:04.832Z,11.57
2018-06-11T21:45:39.049Z,10.10
2018-06-11T21:48:14.156Z,10.23
2018-06-11T21:50:48.494Z,10.20
2018-06-11T21:53:23.222Z,10.20
2018-06-11T21:55:57.465Z,9.40
2018-06-11T21:58:32.005Z,11.13
2018-06-11T22:01:06.696Z,11.13
2018-06-11T22:03:41.945Z,10.83
2018-06-11T22:06:16.767Z,9.80
2018-06-11T22:08:51.052Z,10.90
2018-06-11T22:11:25.651Z,9.90
2018-06-11T22:14:01.785Z,10.27
2018-06-11T22:16:36.353Z,10.77
2018-06-11T22:19:10.862Z,9.80
2018-06-11T22:21:45.197Z,9.80
2018-06-11T22:24:21.286Z,9.90
2018-06-11T22:26:55.874Z,9.70
2018-06-11T22:29:32.649Z,9.87
2018-06-11T22:32:07.711Z,9.80
2018-06-11T22:34:45.600Z,10.13
2018-06-11T22:37:20.830Z,8.63
2018-06-11T22:39:56.234Z,10.33
2018-06-11T22:42:30.539Z,9.23
2018-06-11T22:45:07.124Z,9.20
2018-06-11T22:47:42.203Z,9.00
2018-06-11T22:50:16.857Z,9.07
2018-06-11T22:52:51.244Z,8.73
2018-06-11T22:55:28.361Z,8.87
2018-06-11T22:58:03.671Z,9.97
2018-06-11T23:00:38.109Z,9.63
2018-06-11T23:03:12.274Z,9.17
2018-06-11T23:05:47.659Z,11.70
2018-06-11T23:08:21.994Z,10.30
2018-06-11T23:10:56.952Z,12.07
2018-06-11T23:13:32.224Z,12.73
2018-06-11T23:16:08.219Z,11.27
2018-06-11T23:18:42.983Z,11.00
2018-06-11T23:21:17.156Z,11.67
2018-06-11T23:23:51.367Z,10.37
2018-06-11T23:26:26.074Z,11.00
2018-06-11T23:29:00.459Z,10.60
